sensor_id;sensor_type;location;lat;lon;timestamp;pressure;altitude;pressure_sealevel;temperature;humidity
19128;BME280;9696;53.686;10.094;2023-04-23T00:01:43;100367.66;;;14.76;100.00
19128;BME280;9696;53.686;10.094;2023-04-23T00:04:15;100380.88;;;14.76;100.00
19128;BME280;9696;53.686;10.094;2023-04-23T00:06:46;100367.31;;;14.79;100.00
19128;BME280;9696;53.686;10.094;2023-04-23T00:09:18;100371.13;;;14.77;100.00
19128;BME280;9696;53.686;10.094;2023-04-23T00:11:48;100364.06;;;14.69;100.00
19128;BME280;9696;53.686;10.094;2023-04-23T00:14:18;100360.59;;;14.60;100.00
19128;BME280;9696;53.686;10.094;2023-04-23T00:16:51;100362.72;;;14.73;100.00
19128;BME280;9696;53.686;10.094;2023-04-23T00:19:20;100356.44;;;14.74;100.00
19128;BME280;9696;53.686;10.094;2023-04-23T00:21:51;100357.75;;;14.78;100.00
19128;BME280;9696;53.686;10.094;2023-04-23T00:24:20;100350.81;;;14.85;100.00
19128;BME280;9696;53.686;10.094;2023-04-23T00:26:50;100352.47;;;14.78;100.00
19128;BME280;9696;53.686;10.094;2023-04-23T00:29:20;100357.59;;;14.80;100.00
19128;BME280;9696;53.686;10.094;2023-04-23T00:31:51;100357.13;;;14.68;100.00
19128;BME280;9696;53.686;10.094;2023-04-23T00:34:21;100346.06;;;14.73;100.00
19128;BME280;9696;53.686;10.094;2023-04-23T00:36:51;100353.81;;;14.66;100.00
19128;BME280;9696;53.686;10.094;2023-04-23T00:39:21;100357.47;;;14.65;100.00
19128;BME280;9696;53.686;10.094;2023-04-23T00:41:50;100353.81;;;14.58;100.00
19128;BME280;9696;53.686;10.094;2023-04-23T00:44:21;100351.38;;;14.56;100.00
19128;BME280;9696;53.686;10.094;2023-04-23T00:46:53;100359.63;;;14.45;100.00
19128;BME280;9696;53.686;10.094;2023-04-23T00:49:23;100367.38;;;14.39;100.00
19128;BME280;9696;53.686;10.094;2023-04-23T00:51:54;100357.31;;;14.42;100.00
19128;BME280;9696;53.686;10.094;2023-04-23T00:54:23;100367.84;;;14.42;100.00
19128;BME280;9696;53.686;10.094;2023-04-23T00:56:58;100352.00;;;14.50;100.00
19128;BME280;9696;53.686;10.094;2023-04-23T00:59:28;100352.84;;;14.59;100.00
19128;BME280;9696;53.686;10.094;2023-04-23T01:02:05;100348.41;;;14.35;100.00
19128;BME280;9696;53.686;10.094;2023-04-23T01:04:36;100349.91;;;14.38;100.00
19128;BME280;9696;53.686;10.094;2023-04-23T01:07:06;100347.56;;;14.43;100.00
19128;BME280;9696;53.686;10.094;2023-04-23T01:09:54;100345.94;;;14.42;100.00
19128;BME280;9696;53.686;10.094;2023-04-23T01:12:23;100351.34;;;14.24;100.00
19128;BME280;9696;53.686;10.094;2023-04-23T01:14:53;100352.34;;;14.23;100.00
19128;BME280;9696;53.686;10.094;2023-04-23T01:17:24;100347.88;;;14.24;100.00
19128;BME280;9696;53.686;10.094;2023-04-23T01:19:53;100350.38;;;14.25;100.00
19128;BME280;9696;53.686;10.094;2023-04-23T01:22:25;100353.84;;;14.18;100.00
19128;BME280;9696;53.686;10.094;2023-04-23T01:24:54;100357.94;;;14.28;100.00
19128;BME280;9696;53.686;10.094;2023-04-23T01:27:27;100354.63;;;14.26;100.00
19128;BME280;9696;53.686;10.094;2023-04-23T01:29:58;100351.69;;;14.29;100.00
19128;BME280;9696;53.686;10.094;2023-04-23T01:32:27;100343.94;;;14.28;100.00
19128;BME280;9696;53.686;10.094;2023-04-23T01:34:57;100349.25;;;14.36;100.00
19128;BME280;9696;53.686;10.094;2023-04-23T01:37:28;100340.31;;;14.21;100.00
19128;BME280;9696;53.686;10.094;2023-04-23T01:39:58;100350.88;;;14.12;100.00
19128;BME280;9696;53.686;10.094;2023-04-23T01:45:37;100344.91;;;14.10;100.00
19128;BME280;9696;53.686;10.094;2023-04-23T01:48:06;100352.03;;;14.10;100.00
19128;BME280;9696;53.686;10.094;2023-04-23T01:58:29;100353.00;;;14.17;100.00
19128;BME280;9696;53.686;10.094;2023-04-23T02:00:58;100352.81;;;14.18;100.00
19128;BME280;9696;53.686;10.094;2023-04-23T02:03:29;100347.56;;;14.27;100.00
19128;BME280;9696;53.686;10.094;2023-04-23T02:06:01;100371.28;;;14.18;100.00
19128;BME280;9696;53.686;10.094;2023-04-23T02:08:39;100385.06;;;13.14;100.00
19128;BME280;9696;53.686;10.094;2023-04-23T02:11:09;100385.38;;;12.59;100.00
19128;BME280;9696;53.686;10.094;2023-04-23T02:13:40;100388.59;;;12.27;100.00
19128;BME280;9696;53.686;10.094;2023-04-23T02:16:09;100394.34;;;12.13;100.00
19128;BME280;9696;53.686;10.094;2023-04-23T02:18:39;100402.63;;;12.18;100.00
19128;BME280;9696;53.686;10.094;2023-04-23T02:21:09;100411.78;;;12.14;100.00
19128;BME280;9696;53.686;10.094;2023-04-23T02:23:47;100409.59;;;12.10;100.00
19128;BME280;9696;53.686;10.094;2023-04-23T02:26:16;100407.16;;;12.08;100.00
19128;BME280;9696;53.686;10.094;2023-04-23T02:28:48;100412.91;;;11.94;100.00
19128;BME280;9696;53.686;10.094;2023-04-23T02:31:18;100417.94;;;11.88;100.00
19128;BME280;9696;53.686;10.094;2023-04-23T02:33:50;100429.38;;;11.69;100.00
19128;BME280;9696;53.686;10.094;2023-04-23T02:36:21;100436.16;;;11.62;100.00
19128;BME280;9696;53.686;10.094;2023-04-23T02:38:51;100431.91;;;11.33;100.00
19128;BME280;9696;53.686;10.094;2023-04-23T02:41:22;100429.41;;;11.32;100.00
19128;BME280;9696;53.686;10.094;2023-04-23T02:43:53;100427.69;;;11.13;100.00
19128;BME280;9696;53.686;10.094;2023-04-23T02:46:23;100436.56;;;11.40;100.00
19128;BME280;9696;53.686;10.094;2023-04-23T02:48:54;100428.25;;;11.17;100.00
19128;BME280;9696;53.686;10.094;2023-04-23T02:51:23;100433.00;;;11.31;100.00
19128;BME280;9696;53.686;10.094;2023-04-23T02:54:04;100428.19;;;11.26;100.00
19128;BME280;9696;53.686;10.094;2023-04-23T02:56:34;100431.50;;;11.28;100.00
19128;BME280;9696;53.686;10.094;2023-04-23T02:59:08;100427.91;;;11.29;100.00
19128;BME280;9696;53.686;10.094;2023-04-23T03:01:38;100430.81;;;11.26;100.00
19128;BME280;9696;53.686;10.094;2023-04-23T03:04:10;100429.59;;;11.21;100.00
19128;BME280;9696;53.686;10.094;2023-04-23T03:06:42;100425.53;;;10.99;100.00
19128;BME280;9696;53.686;10.094;2023-04-23T03:09:11;100430.88;;;11.07;100.00
19128;BME280;9696;53.686;10.094;2023-04-23T03:11:48;100436.66;;;11.20;100.00
19128;BME280;9696;53.686;10.094;2023-04-23T03:14:19;100430.88;;;11.17;100.00
19128;BME280;9696;53.686;10.094;2023-04-23T03:16:55;100435.63;;;11.31;100.00
19128;BME280;9696;53.686;10.094;2023-04-23T03:19:25;100435.22;;;11.26;100.00
19128;BME280;9696;53.686;10.094;2023-04-23T03:21:54;100443.03;;;11.18;100.00
19128;BME280;9696;53.686;10.094;2023-04-23T03:24:23;100436.41;;;11.14;100.00
19128;BME280;9696;53.686;10.094;2023-04-23T03:27:08;100449.25;;;11.17;100.00
19128;BME280;9696;53.686;10.094;2023-04-23T03:29:39;100446.81;;;10.86;100.00
19128;BME280;9696;53.686;10.094;2023-04-23T03:32:08;100448.59;;;10.96;100.00
19128;BME280;9696;53.686;10.094;2023-04-23T03:34:38;100454.56;;;10.98;100.00
19128;BME280;9696;53.686;10.094;2023-04-23T03:37:08;100450.50;;;11.13;100.00
19128;BME280;9696;53.686;10.094;2023-04-23T03:39:41;100458.44;;;10.94;100.00
19128;BME280;9696;53.686;10.094;2023-04-23T03:42:11;100465.19;;;10.86;100.00
19128;BME280;9696;53.686;10.094;2023-04-23T03:44:44;100460.50;;;10.80;100.00
19128;BME280;9696;53.686;10.094;2023-04-23T03:47:13;100459.00;;;10.68;100.00
19128;BME280;9696;53.686;10.094;2023-04-23T03:49:43;100458.84;;;10.79;100.00
19128;BME280;9696;53.686;10.094;2023-04-23T03:52:13;100454.59;;;10.69;100.00
19128;BME280;9696;53.686;10.094;2023-04-23T03:54:43;100460.66;;;10.60;100.00
19128;BME280;9696;53.686;10.094;2023-04-23T03:57:17;100457.78;;;10.53;100.00
19128;BME280;9696;53.686;10.094;2023-04-23T04:00:08;100456.69;;;10.46;100.00
19128;BME280;9696;53.686;10.094;2023-04-23T04:02:42;100455.84;;;10.55;100.00
19128;BME280;9696;53.686;10.094;2023-04-23T04:05:13;100452.13;;;10.48;100.00
19128;BME280;9696;53.686;10.094;2023-04-23T04:07:43;100456.69;;;10.36;100.00
19128;BME280;9696;53.686;10.094;2023-04-23T04:10:47;100448.22;;;10.14;100.00
19128;BME280;9696;53.686;10.094;2023-04-23T04:13:17;100465.09;;;10.21;100.00
19128;BME280;9696;53.686;10.094;2023-04-23T04:15:48;100458.00;;;10.12;100.00
19128;BME280;9696;53.686;10.094;2023-04-23T04:18:18;100458.72;;;10.14;100.00
19128;BME280;9696;53.686;10.094;2023-04-23T04:20:54;100471.28;;;10.20;100.00
19128;BME280;9696;53.686;10.094;2023-04-23T04:23:23;100471.03;;;10.32;100.00
19128;BME280;9696;53.686;10.094;2023-04-23T04:25:53;100471.84;;;10.33;100.00
19128;BME280;9696;53.686;10.094;2023-04-23T04:28:54;100477.38;;;10.30;100.00
19128;BME280;9696;53.686;10.094;2023-04-23T04:31:26;100477.34;;;10.11;100.00
19128;BME280;9696;53.686;10.094;2023-04-23T04:33:56;100470.97;;;10.13;100.00
19128;BME280;9696;53.686;10.094;2023-04-23T04:36:26;100472.53;;;10.16;100.00
19128;BME280;9696;53.686;10.094;2023-04-23T04:38:55;100474.56;;;10.12;100.00
19128;BME280;9696;53.686;10.094;2023-04-23T04:41:26;100484.16;;;10.23;100.00
19128;BME280;9696;53.686;10.094;2023-04-23T04:43:55;100474.56;;;10.12;100.00
19128;BME280;9696;53.686;10.094;2023-04-23T04:46:27;100483.72;;;10.37;100.00
19128;BME280;9696;53.686;10.094;2023-04-23T04:48:58;100471.84;;;10.23;100.00
19128;BME280;9696;53.686;10.094;2023-04-23T04:51:28;100484.00;;;10.24;100.00
19128;BME280;9696;53.686;10.094;2023-04-23T04:54:23;100475.69;;;10.19;100.00
19128;BME280;9696;53.686;10.094;2023-04-23T04:56:53;100473.72;;;10.02;100.00
19128;BME280;9696;53.686;10.094;2023-04-23T04:59:22;100483.41;;;10.11;100.00
19128;BME280;9696;53.686;10.094;2023-04-23T05:01:54;100480.63;;;10.03;100.00
19128;BME280;9696;53.686;10.094;2023-04-23T05:04:24;100487.09;;;9.99;100.00
19128;BME280;9696;53.686;10.094;2023-04-23T05:06:54;100489.63;;;10.20;100.00
19128;BME280;9696;53.686;10.094;2023-04-23T05:09:25;100495.28;;;10.15;100.00
19128;BME280;9696;53.686;10.094;2023-04-23T05:11:56;100492.34;;;10.09;100.00
19128;BME280;9696;53.686;10.094;2023-04-23T05:14:26;100505.69;;;9.96;100.00
19128;BME280;9696;53.686;10.094;2023-04-23T05:16:57;100516.09;;;10.07;100.00
19128;BME280;9696;53.686;10.094;2023-04-23T05:19:30;100510.88;;;10.17;100.00
19128;BME280;9696;53.686;10.094;2023-04-23T05:21:59;100508.38;;;10.15;100.00
19128;BME280;9696;53.686;10.094;2023-04-23T05:24:32;100519.72;;;10.25;100.00
19128;BME280;9696;53.686;10.094;2023-04-23T05:27:02;100518.47;;;10.20;100.00
19128;BME280;9696;53.686;10.094;2023-04-23T05:29:31;100520.13;;;10.21;100.00
19128;BME280;9696;53.686;10.094;2023-04-23T05:32:02;100513.69;;;10.34;100.00
19128;BME280;9696;53.686;10.094;2023-04-23T05:34:37;100515.16;;;10.18;100.00
19128;BME280;9696;53.686;10.094;2023-04-23T05:37:07;100527.03;;;10.31;100.00
19128;BME280;9696;53.686;10.094;2023-04-23T05:39:44;100532.72;;;10.36;100.00
19128;BME280;9696;53.686;10.094;2023-04-23T05:42:13;100521.50;;;10.15;100.00
19128;BME280;9696;53.686;10.094;2023-04-23T05:44:50;100527.47;;;10.27;100.00
19128;BME280;9696;53.686;10.094;2023-04-23T05:47:21;100525.38;;;10.21;100.00
19128;BME280;9696;53.686;10.094;2023-04-23T05:49:51;100535.06;;;10.39;100.00
19128;BME280;9696;53.686;10.094;2023-04-23T05:52:23;100534.06;;;10.21;100.00
19128;BME280;9696;53.686;10.094;2023-04-23T05:54:56;100539.25;;;10.12;100.00
19128;BME280;9696;53.686;10.094;2023-04-23T05:57:25;100539.34;;;10.31;100.00
19128;BME280;9696;53.686;10.094;2023-04-23T05:59:57;100539.47;;;10.29;100.00
19128;BME280;9696;53.686;10.094;2023-04-23T06:02:28;100544.44;;;10.23;100.00
19128;BME280;9696;53.686;10.094;2023-04-23T06:04:58;100535.75;;;10.32;100.00
19128;BME280;9696;53.686;10.094;2023-04-23T06:07:29;100540.66;;;10.16;100.00
19128;BME280;9696;53.686;10.094;2023-04-23T06:09:58;100545.72;;;10.08;100.00
19128;BME280;9696;53.686;10.094;2023-04-23T06:12:30;100541.38;;;10.27;100.00
19128;BME280;9696;53.686;10.094;2023-04-23T06:15:00;100542.53;;;10.34;100.00
19128;BME280;9696;53.686;10.094;2023-04-23T06:17:47;100544.91;;;10.66;100.00
19128;BME280;9696;53.686;10.094;2023-04-23T06:20:16;100540.47;;;10.38;100.00
19128;BME280;9696;53.686;10.094;2023-04-23T06:22:48;100532.03;;;10.34;100.00
19128;BME280;9696;53.686;10.094;2023-04-23T06:25:17;100540.09;;;10.12;100.00
19128;BME280;9696;53.686;10.094;2023-04-23T06:27:47;100540.31;;;10.39;100.00
19128;BME280;9696;53.686;10.094;2023-04-23T06:30:21;100536.25;;;10.16;100.00
19128;BME280;9696;53.686;10.094;2023-04-23T06:33:03;100540.75;;;10.05;100.00
19128;BME280;9696;53.686;10.094;2023-04-23T06:35:33;100529.13;;;10.37;100.00
19128;BME280;9696;53.686;10.094;2023-04-23T06:38:02;100526.41;;;10.58;100.00
19128;BME280;9696;53.686;10.094;2023-04-23T06:40:31;100531.06;;;10.45;100.00
19128;BME280;9696;53.686;10.094;2023-04-23T06:43:01;100524.88;;;10.65;100.00
19128;BME280;9696;53.686;10.094;2023-04-23T06:46:09;100537.84;;;10.67;100.00
19128;BME280;9696;53.686;10.094;2023-04-23T06:48:40;100533.00;;;10.91;100.00
19128;BME280;9696;53.686;10.094;2023-04-23T06:51:15;100520.16;;;10.59;100.00
19128;BME280;9696;53.686;10.094;2023-04-23T06:53:46;100531.19;;;10.34;100.00
19128;BME280;9696;53.686;10.094;2023-04-23T06:56:16;100523.88;;;10.28;100.00
19128;BME280;9696;53.686;10.094;2023-04-23T06:58:45;100523.06;;;10.37;100.00
19128;BME280;9696;53.686;10.094;2023-04-23T07:01:21;100520.41;;;10.18;100.00
19128;BME280;9696;53.686;10.094;2023-04-23T07:03:52;100523.03;;;10.18;100.00
19128;BME280;9696;53.686;10.094;2023-04-23T07:06:21;100523.34;;;10.34;100.00
19128;BME280;9696;53.686;10.094;2023-04-23T07:08:51;100527.50;;;10.65;100.00
19128;BME280;9696;53.686;10.094;2023-04-23T07:11:21;100534.22;;;10.39;100.00
19128;BME280;9696;53.686;10.094;2023-04-23T07:13:52;100528.47;;;10.64;100.00
19128;BME280;9696;53.686;10.094;2023-04-23T07:16:23;100528.72;;;10.52;100.00
19128;BME280;9696;53.686;10.094;2023-04-23T07:18:56;100530.09;;;10.84;100.00
19128;BME280;9696;53.686;10.094;2023-04-23T07:21:26;100520.41;;;10.95;100.00
19128;BME280;9696;53.686;10.094;2023-04-23T07:28:24;100524.16;;;10.63;100.00
19128;BME280;9696;53.686;10.094;2023-04-23T07:31:02;100526.53;;;10.66;100.00
19128;BME280;9696;53.686;10.094;2023-04-23T07:58:24;100500.88;;;11.63;100.00
19128;BME280;9696;53.686;10.094;2023-04-23T08:00:55;100498.53;;;11.23;100.00
19128;BME280;9696;53.686;10.094;2023-04-23T08:03:26;100498.47;;;11.42;100.00
19128;BME280;9696;53.686;10.094;2023-04-23T08:05:58;100493.50;;;11.49;100.00
19128;BME280;9696;53.686;10.094;2023-04-23T08:08:27;100493.22;;;12.06;100.00
19128;BME280;9696;53.686;10.094;2023-04-23T08:11:00;100488.59;;;11.63;100.00
19128;BME280;9696;53.686;10.094;2023-04-23T08:17:14;100479.41;;;12.04;100.00
19128;BME280;9696;53.686;10.094;2023-04-23T08:20:00;100477.44;;;12.06;100.00
19128;BME280;9696;53.686;10.094;2023-04-23T08:22:34;100479.00;;;12.88;100.00
19128;BME280;9696;53.686;10.094;2023-04-23T08:25:05;100475.75;;;12.94;100.00
19128;BME280;9696;53.686;10.094;2023-04-23T08:31:37;100486.69;;;11.93;100.00
19128;BME280;9696;53.686;10.094;2023-04-23T08:34:09;100480.41;;;12.39;100.00
19128;BME280;9696;53.686;10.094;2023-04-23T08:40:11;100479.13;;;11.70;100.00
19128;BME280;9696;53.686;10.094;2023-04-23T08:43:09;100473.81;;;11.90;100.00
19128;BME280;9696;53.686;10.094;2023-04-23T08:45:39;100472.34;;;12.22;100.00
19128;BME280;9696;53.686;10.094;2023-04-23T08:48:10;100476.28;;;12.36;100.00
19128;BME280;9696;53.686;10.094;2023-04-23T08:50:42;100463.56;;;12.93;100.00
19128;BME280;9696;53.686;10.094;2023-04-23T08:53:18;100462.72;;;13.10;100.00
19128;BME280;9696;53.686;10.094;2023-04-23T08:55:49;100467.69;;;13.13;100.00
19128;BME280;9696;53.686;10.094;2023-04-23T09:02:46;100487.09;;;12.51;100.00
19128;BME280;9696;53.686;10.094;2023-04-23T09:05:18;100484.75;;;12.30;100.00
19128;BME280;9696;53.686;10.094;2023-04-23T09:07:52;100484.44;;;12.68;100.00
19128;BME280;9696;53.686;10.094;2023-04-23T09:10:22;100492.31;;;12.86;100.00
19128;BME280;9696;53.686;10.094;2023-04-23T09:12:52;100476.78;;;12.57;100.00
19128;BME280;9696;53.686;10.094;2023-04-23T09:15:21;100484.91;;;13.33;100.00
19128;BME280;9696;53.686;10.094;2023-04-23T09:17:53;100479.72;;;13.49;100.00
19128;BME280;9696;53.686;10.094;2023-04-23T09:20:24;100470.84;;;13.50;100.00
19128;BME280;9696;53.686;10.094;2023-04-23T09:22:55;100464.81;;;13.66;100.00
19128;BME280;9696;53.686;10.094;2023-04-23T09:25:26;100459.63;;;13.82;100.00
19128;BME280;9696;53.686;10.094;2023-04-23T09:27:58;100454.88;;;13.18;100.00
19128;BME280;9696;53.686;10.094;2023-04-23T09:30:29;100440.63;;;13.71;100.00
19128;BME280;9696;53.686;10.094;2023-04-23T09:32:59;100445.22;;;13.09;100.00
19128;BME280;9696;53.686;10.094;2023-04-23T09:35:29;100442.50;;;14.02;100.00
19128;BME280;9696;53.686;10.094;2023-04-23T09:38:04;100439.94;;;14.43;100.00
19128;BME280;9696;53.686;10.094;2023-04-23T09:40:37;100441.19;;;14.06;100.00
19128;BME280;9696;53.686;10.094;2023-04-23T09:43:10;100431.16;;;14.02;100.00
19128;BME280;9696;53.686;10.094;2023-04-23T09:45:47;100439.88;;;13.94;100.00
19128;BME280;9696;53.686;10.094;2023-04-23T09:48:17;100427.25;;;14.62;100.00
19128;BME280;9696;53.686;10.094;2023-04-23T09:50:48;100424.88;;;15.00;100.00
19128;BME280;9696;53.686;10.094;2023-04-23T09:53:19;100429.38;;;14.43;100.00
19128;BME280;9696;53.686;10.094;2023-04-23T09:55:52;100435.78;;;14.24;100.00
19128;BME280;9696;53.686;10.094;2023-04-23T09:58:24;100434.09;;;15.20;100.00
19128;BME280;9696;53.686;10.094;2023-04-23T10:01:05;100428.38;;;14.92;100.00
19128;BME280;9696;53.686;10.094;2023-04-23T10:03:36;100429.50;;;15.45;100.00
19128;BME280;9696;53.686;10.094;2023-04-23T10:06:13;100430.13;;;15.24;100.00
19128;BME280;9696;53.686;10.094;2023-04-23T10:09:04;100435.81;;;14.81;100.00
19128;BME280;9696;53.686;10.094;2023-04-23T10:11:39;100443.75;;;14.73;100.00
19128;BME280;9696;53.686;10.094;2023-04-23T10:14:09;100429.06;;;15.33;100.00
19128;BME280;9696;53.686;10.094;2023-04-23T10:16:40;100425.22;;;15.91;100.00
19128;BME280;9696;53.686;10.094;2023-04-23T10:19:18;100424.94;;;16.31;100.00
19128;BME280;9696;53.686;10.094;2023-04-23T10:21:53;100418.19;;;16.43;100.00
19128;BME280;9696;53.686;10.094;2023-04-23T10:24:39;100425.25;;;15.83;100.00
19128;BME280;9696;53.686;10.094;2023-04-23T10:27:12;100425.41;;;16.58;100.00
19128;BME280;9696;53.686;10.094;2023-04-23T10:30:05;100430.84;;;14.78;100.00
19128;BME280;9696;53.686;10.094;2023-04-23T10:32:35;100411.25;;;16.20;100.00
19128;BME280;9696;53.686;10.094;2023-04-23T10:35:06;100411.69;;;16.31;100.00
19128;BME280;9696;53.686;10.094;2023-04-23T10:37:37;100408.09;;;16.01;100.00
19128;BME280;9696;53.686;10.094;2023-04-23T10:40:13;100414.63;;;16.14;100.00
19128;BME280;9696;53.686;10.094;2023-04-23T10:42:44;100413.41;;;16.84;100.00
19128;BME280;9696;53.686;10.094;2023-04-23T10:45:15;100417.59;;;16.79;100.00
19128;BME280;9696;53.686;10.094;2023-04-23T10:47:48;100418.78;;;16.91;100.00
19128;BME280;9696;53.686;10.094;2023-04-23T10:50:19;100421.00;;;17.02;100.00
19128;BME280;9696;53.686;10.094;2023-04-23T10:52:50;100425.22;;;16.14;100.00
19128;BME280;9696;53.686;10.094;2023-04-23T10:55:26;100406.41;;;16.31;100.00
19128;BME280;9696;53.686;10.094;2023-04-23T10:58:01;100407.03;;;16.93;100.00
19128;BME280;9696;53.686;10.094;2023-04-23T11:00:43;100404.06;;;16.74;100.00
19128;BME280;9696;53.686;10.094;2023-04-23T11:03:35;100398.47;;;17.57;100.00
19128;BME280;9696;53.686;10.094;2023-04-23T11:06:13;100397.06;;;17.10;100.00
19128;BME280;9696;53.686;10.094;2023-04-23T11:08:53;100394.25;;;16.60;100.00
19128;BME280;9696;53.686;10.094;2023-04-23T11:11:38;100387.44;;;17.38;100.00
19128;BME280;9696;53.686;10.094;2023-04-23T11:14:11;100396.03;;;18.33;100.00
19128;BME280;9696;53.686;10.094;2023-04-23T11:16:42;100388.50;;;17.73;100.00
19128;BME280;9696;53.686;10.094;2023-04-23T11:19:12;100387.00;;;17.06;100.00
19128;BME280;9696;53.686;10.094;2023-04-23T11:21:57;100387.78;;;18.01;100.00
19128;BME280;9696;53.686;10.094;2023-04-23T11:24:27;100401.56;;;17.89;100.00
19128;BME280;9696;53.686;10.094;2023-04-23T11:26:59;100401.81;;;17.29;100.00
19128;BME280;9696;53.686;10.094;2023-04-23T11:29:30;100410.59;;;16.63;100.00
19128;BME280;9696;53.686;10.094;2023-04-23T11:32:00;100395.09;;;16.37;100.00
19128;BME280;9696;53.686;10.094;2023-04-23T11:34:32;100396.81;;;18.06;100.00
19128;BME280;9696;53.686;10.094;2023-04-23T11:37:02;100397.63;;;17.85;100.00
19128;BME280;9696;53.686;10.094;2023-04-23T11:39:32;100405.34;;;18.23;100.00
19128;BME280;9696;53.686;10.094;2023-04-23T11:42:03;100391.69;;;18.05;100.00
19128;BME280;9696;53.686;10.094;2023-04-23T11:44:37;100393.69;;;19.01;100.00
19128;BME280;9696;53.686;10.094;2023-04-23T11:47:09;100394.59;;;18.31;100.00
19128;BME280;9696;53.686;10.094;2023-04-23T11:49:40;100391.75;;;18.11;100.00
19128;BME280;9696;53.686;10.094;2023-04-23T11:52:11;100377.34;;;17.99;100.00
19128;BME280;9696;53.686;10.094;2023-04-23T11:54:42;100368.16;;;17.15;100.00
19128;BME280;9696;53.686;10.094;2023-04-23T11:57:15;100364.31;;;17.83;100.00
19128;BME280;9696;53.686;10.094;2023-04-23T11:59:44;100372.25;;;18.68;100.00
19128;BME280;9696;53.686;10.094;2023-04-23T12:02:13;100362.50;;;19.16;100.00
19128;BME280;9696;53.686;10.094;2023-04-23T12:04:43;100351.44;;;18.78;100.00
19128;BME280;9696;53.686;10.094;2023-04-23T12:07:12;100353.41;;;18.42;100.00
19128;BME280;9696;53.686;10.094;2023-04-23T12:09:57;100365.31;;;18.73;100.00
19128;BME280;9696;53.686;10.094;2023-04-23T12:12:34;100357.81;;;19.65;93.32
19128;BME280;9696;53.686;10.094;2023-04-23T12:15:04;100349.47;;;19.82;95.48
19128;BME280;9696;53.686;10.094;2023-04-23T12:17:34;100349.22;;;19.76;95.41
19128;BME280;9696;53.686;10.094;2023-04-23T12:20:19;100356.34;;;19.50;91.95
19128;BME280;9696;53.686;10.094;2023-04-23T12:22:49;100358.00;;;18.82;92.65
19128;BME280;9696;53.686;10.094;2023-04-23T12:25:21;100351.00;;;19.43;94.66
19128;BME280;9696;53.686;10.094;2023-04-23T12:27:58;100360.91;;;18.87;96.74
19128;BME280;9696;53.686;10.094;2023-04-23T12:30:28;100352.75;;;19.36;96.33
19128;BME280;9696;53.686;10.094;2023-04-23T12:33:03;100349.16;;;19.09;95.96
19128;BME280;9696;53.686;10.094;2023-04-23T12:35:40;100342.16;;;18.95;93.85
19128;BME280;9696;53.686;10.094;2023-04-23T12:38:21;100347.34;;;19.16;100.00
19128;BME280;9696;53.686;10.094;2023-04-23T12:40:51;100336.72;;;18.75;100.00
19128;BME280;9696;53.686;10.094;2023-04-23T12:43:23;100339.81;;;18.79;98.90
19128;BME280;9696;53.686;10.094;2023-04-23T12:45:54;100346.03;;;20.14;90.34
19128;BME280;9696;53.686;10.094;2023-04-23T12:48:24;100338.44;;;19.98;88.79
19128;BME280;9696;53.686;10.094;2023-04-23T12:50:55;100331.88;;;20.13;84.38
19128;BME280;9696;53.686;10.094;2023-04-23T12:53:30;100336.38;;;19.93;88.52
19128;BME280;9696;53.686;10.094;2023-04-23T12:56:06;100332.28;;;20.17;85.54
19128;BME280;9696;53.686;10.094;2023-04-23T12:58:40;100336.59;;;20.18;84.55
19128;BME280;9696;53.686;10.094;2023-04-23T13:01:16;100332.31;;;20.56;83.80
19128;BME280;9696;53.686;10.094;2023-04-23T13:03:48;100328.41;;;21.30;84.11
19128;BME280;9696;53.686;10.094;2023-04-23T13:06:20;100335.03;;;21.21;81.78
19128;BME280;9696;53.686;10.094;2023-04-23T13:08:56;100329.22;;;20.27;88.26
19128;BME280;9696;53.686;10.094;2023-04-23T13:11:33;100335.63;;;18.63;94.92
19128;BME280;9696;53.686;10.094;2023-04-23T13:14:13;100331.94;;;18.36;96.86
19128;BME280;9696;53.686;10.094;2023-04-23T13:16:47;100328.47;;;17.94;100.00
19128;BME280;9696;53.686;10.094;2023-04-23T13:19:18;100318.50;;;18.17;100.00
19128;BME280;9696;53.686;10.094;2023-04-23T13:22:01;100323.59;;;18.46;100.00
19128;BME280;9696;53.686;10.094;2023-04-23T13:24:36;100322.59;;;18.75;96.62
19128;BME280;9696;53.686;10.094;2023-04-23T13:27:15;100319.41;;;18.93;94.59
19128;BME280;9696;53.686;10.094;2023-04-23T13:29:50;100314.38;;;19.04;93.92
19128;BME280;9696;53.686;10.094;2023-04-23T13:32:27;100303.59;;;21.29;85.72
19128;BME280;9696;53.686;10.094;2023-04-23T13:35:15;100308.09;;;19.86;81.86
19128;BME280;9696;53.686;10.094;2023-04-23T13:38:00;100297.16;;;21.75;78.17
19128;BME280;9696;53.686;10.094;2023-04-23T13:40:41;100297.94;;;20.99;78.46
19128;BME280;9696;53.686;10.094;2023-04-23T13:43:14;100293.53;;;20.74;77.35
19128;BME280;9696;53.686;10.094;2023-04-23T13:45:50;100288.22;;;20.08;83.90
19128;BME280;9696;53.686;10.094;2023-04-23T13:48:24;100292.84;;;18.52;89.77
19128;BME280;9696;53.686;10.094;2023-04-23T13:51:01;100294.69;;;18.30;93.01
19128;BME280;9696;53.686;10.094;2023-04-23T13:53:49;100278.88;;;18.50;91.55
19128;BME280;9696;53.686;10.094;2023-04-23T13:56:25;100260.75;;;21.11;80.96
19128;BME280;9696;53.686;10.094;2023-04-23T13:59:01;100259.84;;;20.79;80.42
19128;BME280;9696;53.686;10.094;2023-04-23T14:01:49;100257.31;;;20.13;82.40
19128;BME280;9696;53.686;10.094;2023-04-23T14:04:22;100245.84;;;19.93;84.57
19128;BME280;9696;53.686;10.094;2023-04-23T14:07:07;100243.75;;;20.35;83.25